Latest Weather Observations for Learmonth

IDW60801

Issued at 7:33 pm WST Sunday 20 August 2017 (issued every 30 minutes, with the page automatically refreshed every 10 minutes)

About weather observations | Map of weather stations | Latest weather observations for WA | Other Formats
Station Details ID: 005007 Name: LEARMONTH AIRPORT Lat: -22.24 Lon: 114.10 Height: 5.0 m
Data from the previous 72 hours. | See also: Recent months at Learmonth
Date/Time
WST
Temp
°C
App
Temp
°C
Dew
Point
°C
Rel
Hum
%
Delta-T
°C
Wind Press
QNH
hPa
Press
MSL
hPa
Rain since
9am
mm
Dir  Spd
km/h
Gust
km/h
Spd
kts
Gust
kts
20/07:00pm 18.1 13.4 1.2 32 7.5 S 15 17 8 9 1015.4 - 0.0
20/06:30pm 20.2 15.5 1.1 28 8.6 S 15 17 8 9 1015.4 - 0.0
20/06:00pm 23.0 18.0 1.4 24 10.0 S 17 20 9 11 1015.3 1015.2 0.0
20/05:30pm 24.7 18.8 1.6 22 10.9 SSE 22 28 12 15 1015.2 - 0.0
20/05:00pm 25.2 18.8 0.7 20 11.4 SSE 24 28 13 15 1015.2 - 0.0
20/04:30pm 25.6 18.8 1.0 20 11.6 SE 26 32 14 17 1015.2 - 0.0
20/04:00pm 25.5 19.2 1.6 21 11.4 SE 24 32 13 17 1015.1 - 0.0
20/03:30pm 25.1 18.1 1.9 22 11.1 SE 28 35 15 19 1015.3 - 0.0
20/03:00pm 25.4 18.4 2.2 22 11.1 SE 28 37 15 20 1015.6 1015.5 0.0
20/02:30pm 24.8 18.1 1.7 22 10.9 SE 26 35 14 19 1016.0 - 0.0
20/02:00pm 24.7 17.5 2.8 24 10.6 SE 30 37 16 20 1016.3 - 0.0
20/01:30pm 24.2 16.5 2.4 24 10.4 SE 32 39 17 21 1017.0 - 0.0
20/01:00pm 24.6 17.5 3.3 25 10.4 SE 30 41 16 22 1017.4 - 0.0
20/12:30pm 23.4 15.7 3.4 27 9.7 SE 33 43 18 23 1018.0 - 0.0
20/12:00pm 22.5 14.5 3.6 29 9.1 SE 35 43 19 23 1018.7 1018.6 0.0
20/11:30am 22.2 14.1 3.3 29 9.1 SE 35 46 19 25 1019.4 - 0.0
20/11:00am 21.9 14.0 4.5 32 8.5 SE 35 43 19 23 1020.0 - 0.0
20/10:30am 21.2 13.4 4.7 34 8.1 SE 35 48 19 26 1020.4 - 0.0
20/10:00am 20.1 12.3 5.0 37 7.4 SE 35 46 19 25 1021.0 - 0.0
20/09:30am 19.0 11.8 5.8 42 6.5 SE 33 44 18 24 1021.2 - 0.0
20/09:00am 18.8 11.7 6.3 44 6.2 SSE 33 44 18 24 1021.3 1021.2 0.0
20/08:30am 17.5 10.5 5.8 46 5.7 SSE 32 41 17 22 1021.4 - 0.0
20/08:00am 16.4 11.0 6.2 51 5.0 SSE 24 35 13 19 1021.3 - 0.0
20/07:30am 15.1 10.0 6.1 55 4.3 S 22 32 12 17 1021.0 - 0.0
20/07:00am 12.6 9.2 6.0 64 3.1 SSW 13 20 7 11 1020.8 - 0.0
20/06:30am 12.0 7.8 5.9 66 2.9 SSW 17 20 9 11 1020.7 - 0.0
20/06:00am 12.6 8.5 6.2 65 3.0 SSW 17 20 9 11 1020.5 1020.4 0.0
20/05:30am 12.7 8.3 6.5 66 3.0 S 19 24 10 13 1020.3 - 0.0
20/05:00am 12.7 8.1 6.5 66 3.0 SSW 20 24 11 13 1020.4 - 0.0
20/04:30am 13.0 9.0 6.6 65 3.1 S 17 22 9 12 1020.0 - 0.0
20/04:00am 13.5 9.0 6.8 64 3.2 S 20 26 11 14 1019.8 - 0.0
20/03:30am 13.6 8.7 6.7 63 3.3 S 22 26 12 14 1019.8 - 0.0
20/03:00am 14.0 9.1 6.8 62 3.5 S 22 28 12 15 1019.9 1019.8 0.0
20/02:30am 14.1 9.2 6.7 61 3.6 S 22 30 12 16 1020.0 - 0.0
20/02:00am 14.4 9.5 6.7 60 3.7 S 22 30 12 16 1020.0 - 0.0
20/01:30am 14.7 9.8 6.8 59 3.8 SSW 22 30 12 16 1020.0 - 0.0
20/01:00am 15.0 10.1 6.8 58 4.0 SSW 22 28 12 15 1020.1 - 0.0
20/12:30am 15.5 10.6 7.0 57 4.2 SSW 22 30 12 16 1020.1 - 0.0
20/12:00am 15.8 10.9 7.0 56 4.3 SSW 22 32 12 17 1020.0 1019.9 0.0
 
Date/Time
WST
Temp
°C
App
Temp
°C
Dew
Point
°C
Rel
Hum
%
Delta-T
°C
Wind Press
QNH
hPa
Press
MSL
hPa
Rain since
9am
mm
Dir  Spd
km/h
Gust
km/h
Spd
kts
Gust
kts
19/11:30pm 16.1 10.9 7.1 55 4.5 SSW 24 32 13 17 1020.1 - 0.0
19/11:00pm 16.2 10.9 6.9 54 4.6 SSW 24 32 13 17 1020.2 - 0.0
19/10:30pm 16.2 10.9 6.6 53 4.7 SSW 24 30 13 16 1020.1 - 0.0
19/10:00pm 16.6 11.3 6.7 52 4.9 SSW 24 32 13 17 1020.1 - 0.0
19/09:30pm 17.1 11.5 7.2 52 4.9 SSW 26 33 14 18 1019.9 - 0.0
19/09:00pm 17.7 12.2 7.7 52 5.0 SSW 26 35 14 19 1019.7 1019.6 0.0
19/08:30pm 18.4 13.0 9.5 56 4.7 SSW 28 35 15 19 1019.3 - 0.0
19/08:00pm 18.6 13.4 10.4 59 4.4 SSW 28 35 15 19 1019.1 - 0.0
19/07:30pm 18.9 13.7 10.2 57 4.7 SSW 28 35 15 19 1018.6 - 0.0
19/07:00pm 19.2 13.5 9.9 55 5.0 SSW 30 35 16 19 1018.4 - 0.0
19/06:30pm 19.5 14.4 10.5 56 4.9 SSW 28 35 15 19 1017.9 - 0.0
19/06:00pm 20.4 14.2 10.2 52 5.5 SSW 33 43 18 23 1017.7 1017.6 0.0
19/05:30pm 21.6 15.5 9.8 47 6.4 SSW 32 43 17 23 1017.3 - 0.0
19/05:00pm 23.5 17.7 9.5 41 7.6 SSW 30 39 16 21 1017.0 - 0.0
19/04:30pm 23.5 18.0 9.1 40 7.8 S 28 44 15 24 1016.8 - 0.0
19/04:00pm 23.8 18.3 9.0 39 8.0 SSW 28 39 15 21 1016.9 - 0.0
19/03:30pm 23.7 17.5 9.3 40 7.8 S 32 43 17 23 1017.0 - 0.0
19/03:00pm 24.5 19.2 10.0 40 8.0 S 28 41 15 22 1017.1 1017.0 0.0
19/02:30pm 24.2 18.1 9.8 40 7.9 S 32 43 17 23 1017.0 - 0.0
19/02:00pm 23.6 17.5 9.9 42 7.5 S 32 44 17 24 1017.3 - 0.0
19/01:30pm 22.6 16.7 10.4 46 6.7 SSW 32 41 17 22 1017.6 - 0.0
19/01:00pm 22.5 16.4 10.6 47 6.5 S 33 44 18 24 1018.0 - 0.0
19/12:49pm 23.0 17.8 10.4 45 6.9 S 28 46 15 25 1017.8 - 0.0
19/12:30pm 22.8 16.7 9.9 44 7.0 SSW 32 43 17 23 1018.2 - 0.0
19/12:00pm 23.0 18.0 10.8 46 6.7 S 28 39 15 21 1018.4 1018.3 0.0
19/11:30am 23.2 18.2 10.9 46 6.8 S 28 35 15 19 1018.8 - 0.0
19/11:00am 21.6 17.0 11.0 51 5.8 S 26 35 14 19 1019.4 - 0.0
19/10:30am 20.8 16.0 11.7 56 5.1 SSE 28 43 15 23 1019.7 - 0.0
19/10:00am 20.8 16.3 11.4 55 5.2 SSE 26 37 14 20 1020.1 - 0.0
19/09:30am 20.0 16.4 12.0 60 4.5 SSE 22 30 12 16 1020.1 - 0.0
19/09:00am 18.4 14.3 11.5 64 3.8 SSE 24 32 13 17 1020.2 1020.1 0.0
19/08:30am 18.2 15.1 10.3 60 4.2 S 17 24 9 13 1019.8 - 0.0
19/08:00am 16.4 14.4 10.3 67 3.2 SSW 11 15 6 8 1019.6 - 0.0
19/07:30am 15.0 13.1 10.4 74 2.4 WSW 11 13 6 7 1019.1 - 0.0
19/07:00am 12.3 10.1 9.3 82 1.5 WSW 11 13 6 7 1018.9 - 0.0
19/06:30am 12.6 10.5 9.6 82 1.5 WSW 11 11 6 6 1018.6 - 0.0
19/06:00am 12.8 10.8 10.0 83 1.4 WSW 11 13 6 7 1018.5 1018.4 0.0
19/05:30am 12.9 10.9 10.1 83 1.4 WSW 11 13 6 7 1018.2 - 0.0
19/05:00am 12.7 10.6 9.9 83 1.4 SW 11 13 6 7 1018.1 - 0.0
19/04:30am 12.4 10.0 10.1 86 1.2 SW 13 15 7 8 1017.9 - 0.0
19/04:00am 12.3 10.1 9.5 83 1.4 SW 11 13 6 7 1018.0 - 0.0
19/03:30am 13.2 11.3 10.4 83 1.5 SW 11 13 6 7 1017.9 - 0.0
19/03:00am 13.6 11.7 10.6 82 1.6 SW 11 15 6 8 1017.9 1017.8 0.0
19/02:30am 14.0 11.8 10.8 81 1.7 SW 13 15 7 8 1017.9 - 0.0
19/02:00am 14.4 12.3 11.2 81 1.7 SW 13 15 7 8 1017.9 - 0.0
19/01:30am 14.2 12.2 11.4 83 1.5 SW 13 15 7 8 1017.8 - 0.0
19/01:00am 14.7 12.8 11.7 82 1.6 SSW 13 15 7 8 1017.9 - 0.0
19/12:30am 15.1 13.1 11.5 79 1.9 SSW 13 15 7 8 1017.9 - 0.0
19/12:00am 16.0 13.4 12.0 77 2.2 SSW 17 19 9 10 1018.0 1017.9 0.0
 
Date/Time
WST
Temp
°C
App
Temp
°C
Dew
Point
°C
Rel
Hum
%
Delta-T
°C
Wind Press
QNH
hPa
Press
MSL
hPa
Rain since
9am
mm
Dir  Spd
km/h
Gust
km/h
Spd
kts
Gust
kts
18/11:30pm 16.4 13.9 12.2 76 2.3 SSW 17 20 9 11 1018.0 - 0.0
18/11:00pm 16.6 14.3 11.7 73 2.7 SSW 15 17 8 9 1018.0 - 0.0
18/10:30pm 17.6 15.0 12.1 70 3.0 SSW 17 22 9 12 1017.9 - 0.0
18/10:00pm 18.4 15.3 12.2 67 3.4 SSW 20 30 11 16 1017.8 - 0.0
18/09:30pm 18.9 15.1 12.4 66 3.6 SW 24 30 13 16 1017.7 - 0.0
18/09:00pm 19.4 15.4 12.9 66 3.7 SW 26 35 14 19 1017.6 1017.5 0.0
18/08:30pm 19.7 15.4 13.2 66 3.7 SW 28 33 15 18 1017.5 - 0.0
18/08:00pm 19.8 15.5 13.3 66 3.7 SW 28 39 15 21 1017.1 - 0.0
18/07:30pm 19.8 15.4 13.0 65 3.8 SW 28 39 15 21 1016.8 - 0.0
18/07:00pm 20.2 14.9 12.4 61 4.4 SW 32 39 17 21 1016.2 - 0.0
18/06:30pm 20.8 15.9 11.4 55 5.2 SSW 28 35 15 19 1015.7 - 0.0
18/06:00pm 22.0 17.0 9.5 45 6.7 SW 26 35 14 19 1015.1 1015.0 0.0
18/05:30pm 23.6 17.6 8.8 39 7.9 SW 30 39 16 21 1014.8 - 0.0
18/05:00pm 24.0 17.9 8.4 37 8.3 SW 30 39 16 21 1014.6 - 0.0
18/04:30pm 24.7 19.0 8.2 35 8.8 SW 28 37 15 20 1014.4 - 0.0
18/04:00pm 26.2 20.0 7.7 31 9.9 SW 30 39 16 21 1014.1 - 0.0
18/03:30pm 27.1 21.7 6.5 27 10.8 SW 24 33 13 18 1013.9 - 0.0
18/03:00pm 27.1 21.7 6.5 27 10.8 SW 24 35 13 19 1013.8 1013.7 0.0
18/02:30pm 27.3 22.0 6.7 27 10.9 SW 24 33 13 18 1013.7 - 0.0
18/02:00pm 27.2 22.8 6.6 27 10.8 SW 19 24 10 13 1014.0 - 0.0
18/01:30pm 25.0 20.6 7.2 32 9.3 E 20 24 11 13 1014.1 - 0.0
18/01:00pm 24.4 20.4 8.4 36 8.5 E 19 22 10 12 1014.6 - 0.0
18/12:30pm 24.2 20.4 9.0 38 8.2 E 19 22 10 12 1015.1 - 0.0
18/12:00pm 26.2 21.9 3.4 23 11.2 WSW 15 26 8 14 1015.3 1015.2 0.0
18/11:30am 25.9 21.9 4.9 26 10.6 WSW 15 24 8 13 1015.7 - 0.0
18/11:00am 23.9 20.0 5.3 30 9.4 SW 15 22 8 12 1016.2 - 0.0
18/10:30am 23.8 20.4 6.1 32 9.0 SW 13 20 7 11 1016.4 - 0.0
18/10:00am 22.0 18.3 6.3 36 8.0 SSW 15 20 8 11 1016.5 - 0.0
18/09:30am 20.8 16.4 6.7 40 7.1 SSW 19 26 10 14 1016.5 - 0.0
18/09:00am 18.7 14.1 8.1 50 5.4 SSW 22 28 12 15 1016.3 1016.2 0.0
18/08:30am 17.1 12.5 8.3 56 4.5 SSW 22 28 12 15 1016.2 - 0.0
18/08:00am 16.0 11.2 8.7 62 3.7 SSW 24 30 13 16 1016.1 - 0.0
18/07:30am 14.3 10.4 8.5 68 2.9 SSW 19 26 10 14 1015.7 - 0.0
18/07:00am 13.0 9.3 8.1 72 2.4 SSW 17 20 9 11 1015.4 - 0.0
18/06:30am 13.0 8.9 7.9 71 2.5 SW 19 22 10 12 1015.1 - 0.0
18/06:00am 12.9 9.1 7.4 69 2.7 SW 17 20 9 11 1014.8 1014.7 0.0
18/05:30am 13.1 9.2 6.9 66 3.0 SW 17 20 9 11 1014.6 - 0.0
18/05:00am 12.9 8.9 6.5 65 3.1 SW 17 20 9 11 1014.2 - 0.0
18/04:30am 12.6 8.1 6.0 64 3.1 SW 19 20 10 11 1014.0 - 0.0
18/04:00am 12.4 8.2 5.8 64 3.1 SW 17 19 9 10 1014.1 - 0.0
18/03:30am 12.4 8.9 5.3 62 3.3 SSW 13 17 7 9 1014.1 - 0.0
18/03:00am 13.3 9.5 5.7 60 3.6 SSW 15 17 8 9 1014.1 1014.0 0.0
18/02:30am 13.9 10.1 6.0 59 3.8 SW 15 17 8 9 1014.1 - 0.0
18/02:00am 14.4 9.9 6.3 58 3.9 SSW 19 22 10 12 1014.2 - 0.0
18/01:30am 15.1 10.7 6.7 57 4.1 SW 19 24 10 13 1014.3 - 0.0
18/01:00am 15.2 10.8 6.7 57 4.1 SW 19 24 10 13 1014.4 - 0.0
18/12:30am 15.7 11.2 7.0 56 4.3 SSW 20 30 11 16 1014.5 - 0.0
18/12:00am 16.0 10.9 7.5 57 4.2 SW 24 32 13 17 1014.7 1014.6 0.0
 
Date/Time
WST
Temp
°C
App
Temp
°C
Dew
Point
°C
Rel
Hum
%
Delta-T
°C
Wind Press
QNH
hPa
Press
MSL
hPa
Rain since
9am
mm
Dir  Spd
km/h
Gust
km/h
Spd
kts
Gust
kts
17/11:30pm 16.1 11.6 8.6 61 3.8 SW 22 30 12 16 1014.8 - 0.0
17/11:00pm 16.2 12.9 9.4 64 3.5 SSW 17 22 9 12 1015.2 - 0.0
17/10:30pm 16.7 13.4 9.4 62 3.8 SSW 17 20 9 11 1015.3 - 0.0
17/10:00pm 17.8 14.9 11.1 65 3.6 SSW 17 20 9 11 1015.3 - 0.0
17/09:30pm 18.5 16.5 12.7 69 3.2 SSW 15 20 8 11 1015.0 - 0.0
17/09:00pm 19.2 17.4 13.2 68 3.4 SSW 15 22 8 12 1014.7 1014.6 0.0
17/08:30pm 19.7 17.0 12.9 65 3.8 SW 19 24 10 13 1014.3 - 0.0
17/08:00pm 19.9 16.6 12.9 64 4.0 SW 22 30 12 16 1014.1 - 0.0

Other Formats:

Comma delimited format used in spreadsheet applications
http://www.bom.gov.au/fwo/IDW60801/IDW60801.94302.axf

JavaScript Object Notation format (JSON) in row-major order
http://www.bom.gov.au/fwo/IDW60801/IDW60801.94302.json